Time;durP1;ratioP1;P1;durP2;ratioP2;P2;SDS_P1;SDS_P2;PMS_P1;PMS_P2;Temp;Humidity;BMP_temperature;BMP_pressure;BME280_temperature;BME280_humidity;BME280_pressure;Samples;Min_cycle;Max_cycle;Signal;HPM_P1;HPM_P2
2022/03/21 00:01:37;;;;;;;;;;;;;;;;;;4433547;32;20125;-79
2022/03/21 00:04:02;;;;;;;79.37;50.25;;;;;;;;;;4436735;32;19970;-80
2022/03/21 00:06:27;;;;;;;;;;;;;;;;;;4432697;32;20399;-79
2022/03/21 00:08:52;;;;;;;74.37;49.28;;;;;;;;;;4433336;32;20014;-81
2022/03/21 00:11:18;;;;;;;;;;;;;;;;;;4433216;32;20348;-80
2022/03/21 00:13:43;;;;;;;78.65;49.67;;;;;;;;;;4433086;32;19985;-81
2022/03/21 00:16:08;;;;;;;;;;;;;;;;;;4419117;32;20034;-79
2022/03/21 00:18:34;;;;;;;81.97;50.70;;;;;;;;;;4432888;32;19948;-80
2022/03/21 00:20:59;;;;;;;;;;;;;;;;;;4418665;32;20109;-80
2022/03/21 00:23:25;;;;;;;78.22;51.42;;;;;;;;;;4432454;32;19975;-80
2022/03/21 00:25:50;;;;;;;;;;;;;;;;;;4433076;32;20027;-80
2022/03/21 00:28:15;;;;;;;87.18;50.17;;;;;;;;;;4432382;32;20031;-80
2022/03/21 00:30:40;;;;;;;;;;;;;;;;;;4432313;32;20052;-80
2022/03/21 00:33:06;;;;;;;78.90;49.47;;;;;;;;;;4431778;32;19977;-81
2022/03/21 00:35:31;;;;;;;;;;;;;;;;;;4431789;32;20029;-81
2022/03/21 00:37:56;;;;;;;74.95;49.28;;;;;;;;;;4431709;32;19933;-81
2022/03/21 00:40:21;;;;;;;;;;;;;;;;;;4432020;32;20053;-81
2022/03/21 00:42:47;;;;;;;83.40;51.75;;;;;;;;;;4419085;32;19937;-80
2022/03/21 00:45:12;;;;;;;;;;;;;;;;;;4419761;32;20126;-80
2022/03/21 00:47:38;;;;;;;81.10;49.80;;;;;;;;;;4432657;32;20313;-79
2022/03/21 00:50:03;;;;;;;;;;;;;;;;;;4432141;32;20104;-80
2022/03/21 00:52:30;;;;;;;81.63;50.33;;;;;;;;;;4432534;32;19933;-80
2022/03/21 00:54:55;;;;;;;79.03;49.58;;;;;;;;;;4433890;32;20098;-81
2022/03/21 00:57:20;;;;;;;;;;;;;;;;;;4432876;32;20399;-79
2022/03/21 00:59:46;;;;;;;78.55;50.12;;;;;;;;;;4432006;32;20052;-80
2022/03/21 01:02:12;;;;;;;;;;;;;;;;;;4433990;32;20077;-81
2022/03/21 01:04:38;;;;;;;77.95;51.05;;;;;;;;;;4431827;32;19944;-81
2022/03/21 01:07:03;;;;;;;;;;;;;;;;;;4433967;32;20289;-81
2022/03/21 01:09:28;;;;;;;80.12;49.40;;;;;;;;;;4433095;32;19932;-80
2022/03/21 01:11:53;;;;;;;;;;;;;;;;;;4433181;32;20422;-80
2022/03/21 01:14:18;;;;;;;79.47;50.50;;;;;;;;;;4432711;32;19947;-80
2022/03/21 01:16:43;;;;;;;;;;;;;;;;;;4433149;32;20484;-80
2022/03/21 01:19:09;;;;;;;76.87;50.55;;;;;;;;;;4434348;32;19965;-79
2022/03/21 01:21:34;;;;;;;87.12;52.92;;;;;;;;;;4440735;32;20026;-81
2022/03/21 01:23:59;;;;;;;;;;;;;;;;;;4449308;32;20049;-81
2022/03/21 01:26:24;;;;;;;79.93;51.85;;;;;;;;;;4443336;32;20017;-81
2022/03/21 01:28:49;;;;;;;;;;;;;;;;;;4423541;32;20140;-80
2022/03/21 01:31:14;;;;;;;80.47;50.03;;;;;;;;;;4438514;32;19937;-81
2022/03/21 01:33:41;;;;;;;;;;;;;;;;;;4424940;32;20030;-80
2022/03/21 01:36:06;;;;;;;83.40;51.55;;;;;;;;;;4436953;32;19951;-81
2022/03/21 01:38:32;;;;;;;;;;;;;;;;;;4442817;26;20102;-75
2022/03/21 01:40:57;;;;;;;83.47;52.05;;;;;;;;;;4391127;32;19941;-75
2022/03/21 01:43:22;;;;;;;;;;;;;;;;;;4409161;32;20034;-75
2022/03/21 01:45:47;;;;;;;76.43;49.85;;;;;;;;;;4394638;32;19950;-76
2022/03/21 01:48:12;;;;;;;;;;;;;;;;;;4408400;32;20545;-75
2022/03/21 01:50:37;;;;;;;79.55;51.25;;;;;;;;;;4407811;32;19989;-75
2022/03/21 01:55:48;;;;;;;85.82;52.08;;;;;;;;;;4407556;32;20004;-74
2022/03/21 01:58:14;;;;;;;82.25;51.72;;;;;;;;;;4393272;32;20345;-75
2022/03/21 02:00:40;;;;;;;;;;;;;;;;;;4407040;32;20031;-75
2022/03/21 02:03:05;;;;;;;82.93;51.58;;;;;;;;;;4404601;32;19956;-76
2022/03/21 02:05:31;;;;;;;;;;;;;;;;;;4407655;32;20018;-77
2022/03/21 02:07:56;;;;;;;78.90;49.42;;;;;;;;;;4393574;32;19934;-77
2022/03/21 02:10:21;;;;;;;;;;;;;;;;;;4407662;32;20022;-75
2022/03/21 02:12:46;;;;;;;81.00;51.55;;;;;;;;;;4406791;32;20032;-75
2022/03/21 02:15:11;;;;;;;;;;;;;;;;;;4408296;32;20083;-76
2022/03/21 02:17:38;;;;;;;78.45;50.42;;;;;;;;;;4407187;32;19933;-75
2022/03/21 02:20:04;;;;;;;80.05;50.75;;;;;;;;;;4407000;32;20188;-76
2022/03/21 02:22:29;;;;;;;;;;;;;;;;;;4393666;32;20026;-75
2022/03/21 02:25:13;;;;;;;76.95;49.03;;;;;;;;;;4406654;32;19933;-75
2022/03/21 02:27:39;;;;;;;80.38;53.15;;;;;;;;;;4392747;32;20205;-75
2022/03/21 02:30:04;;;;;;;;;;;;;;;;;;4407407;32;20054;-75
2022/03/21 02:32:29;;;;;;;80.47;50.95;;;;;;;;;;4392677;32;19949;-76
2022/03/21 02:34:54;;;;;;;;;;;;;;;;;;4407058;32;20141;-75
2022/03/21 02:37:20;;;;;;;82.95;49.63;;;;;;;;;;4393017;32;19945;-75
2022/03/21 02:39:45;;;;;;;;;;;;;;;;;;4406189;32;20366;-75
2022/03/21 02:42:11;;;;;;;80.90;50.22;;;;;;;;;;4407887;32;19941;-75
2022/03/21 02:44:37;;;;;;;85.82;50.72;;;;;;;;;;4406947;32;20075;-75
2022/03/21 02:47:04;;;;;;;83.47;51.88;;;;;;;;;;4392578;32;20049;-76
2022/03/21 02:49:29;;;;;;;80.68;50.30;;;;;;;;;;4406312;32;20046;-75
2022/03/21 02:51:54;;;;;;;;;;;;;;;;;;4393091;32;20424;-75
2022/03/21 02:54:21;;;;;;;76.70;48.53;;;;;;;;;;4407320;32;19971;-74
2022/03/21 02:56:46;;;;;;;82.43;51.15;;;;;;;;;;4392499;32;20149;-75
2022/03/21 02:59:12;;;;;;;;;;;;;;;;;;4406788;32;20019;-75
2022/03/21 03:01:37;;;;;;;82.03;50.97;;;;;;;;;;4391736;32;20327;-75
2022/03/21 03:04:02;;;;;;;;;;;;;;;;;;4392912;32;20027;-75
2022/03/21 03:06:27;;;;;;;76.78;49.40;;;;;;;;;;4405836;32;20297;-74
2022/03/21 03:08:52;;;;;;;;;;;;;;;;;;4406505;32;20432;-76
2022/03/21 03:11:17;;;;;;;84.35;52.85;;;;;;;;;;4392067;32;19990;-75
2022/03/21 03:13:42;;;;;;;;;;;;;;;;;;4406653;32;20026;-75
2022/03/21 03:16:08;;;;;;;82.25;50.05;;;;;;;;;;4391982;32;19987;-75
2022/03/21 03:18:34;;;;;;;77.35;51.35;;;;;;;;;;4405826;32;20079;-76
2022/03/21 03:20:59;;;;;;;;;;;;;;;;;;4393579;32;20046;-75
2022/03/21 03:23:25;;;;;;;83.22;48.58;;;;;;;;;;4406420;32;20074;-77
2022/03/21 03:26:03;;;;;;;85.68;52.30;;;;;;;;;;4406295;32;20022;-75
2022/03/21 03:28:29;;;;;;;85.03;53.35;;;;;;;;;;4391698;32;20018;-75
2022/03/21 03:30:54;;;;;;;;;;;;;;;;;;4406150;32;20073;-76
2022/03/21 03:33:20;;;;;;;88.60;54.30;;;;;;;;;;4391896;32;19941;-76
2022/03/21 03:35:45;;;;;;;;;;;;;;;;;;4392785;32;20413;-76
2022/03/21 03:38:10;;;;;;;80.87;51.33;;;;;;;;;;4406906;32;19933;-75
2022/03/21 03:40:35;;;;;;;;;;;;;;;;;;4406425;32;20073;-76
2022/03/21 03:43:00;;;;;;;85.05;52.35;;;;;;;;;;4391115;32;20319;-76
2022/03/21 03:45:25;;;;;;;;;;;;;;;;;;4406297;32;20026;-76
2022/03/21 03:47:52;;;;;;;89.55;52.05;;;;;;;;;;4392735;32;19955;-76
2022/03/21 03:50:17;;;;;;;92.40;55.15;;;;;;;;;;4392605;32;20019;-74
2022/03/21 03:52:45;;;;;;;;;;;;;;;;;;4405872;32;20462;-75
2022/03/21 03:55:10;;;;;;;89.45;55.00;;;;;;;;;;4405404;32;20289;-75
2022/03/21 03:57:36;;;;;;;;;;;;;;;;;;4406187;32;20035;-76
2022/03/21 04:00:01;;;;;;;91.37;55.78;;;;;;;;;;4392197;32;19948;-75
2022/03/21 04:02:26;;;;;;;;;;;;;;;;;;4407833;32;20041;-75
2022/03/21 04:04:51;;;;;;;88.28;56.80;;;;;;;;;;4405723;32;19956;-75
2022/03/21 04:07:19;;;;;;;;;;;;;;;;;;4407189;32;20077;-76
2022/03/21 04:09:44;;;;;;;90.68;56.05;;;;;;;;;;4405232;32;19956;-76
2022/03/21 04:12:09;;;;;;;;;;;;;;;;;;4391602;32;20094;-76
2022/03/21 04:14:34;;;;;;;96.55;58.42;;;;;;;;;;4405684;32;20450;-76
2022/03/21 04:16:59;;;;;;;;;;;;;;;;;;4392023;32;20061;-76
2022/03/21 04:19:24;;;;;;;97.12;58.15;;;;;;;;;;4391096;32;20075;-75
2022/03/21 04:21:50;;;;;;;;;;;;;;;;;;4391500;32;20133;-75
2022/03/21 04:24:15;;;;;;;98.43;58.97;;;;;;;;;;4391082;32;20269;-75
2022/03/21 04:26:40;;;;;;;;;;;;;;;;;;4405693;32;20128;-76
2022/03/21 04:29:06;;;;;;;101.53;61.58;;;;;;;;;;4392386;32;20019;-76
2022/03/21 04:31:31;;;;;;;;;;;;;;;;;;4392067;32;20105;-76
2022/03/21 04:33:56;;;;;;;103.12;60.30;;;;;;;;;;4391050;32;20000;-76
2022/03/21 04:36:22;;;;;;;;;;;;;;;;;;4405936;32;20027;-76
2022/03/21 04:38:47;;;;;;;99.60;61.33;;;;;;;;;;4404294;32;19949;-77
2022/03/21 04:41:12;;;;;;;;;;;;;;;;;;4405064;32;20147;-76
2022/03/21 04:43:37;;;;;;;98.47;59.53;;;;;;;;;;4390768;32;19948;-77
2022/03/21 04:46:03;;;;;;;;;;;;;;;;;;4391790;32;20083;-76
2022/03/21 04:48:28;;;;;;;101.10;62.53;;;;;;;;;;4392525;32;19952;-75
2022/03/21 04:50:53;;;;;;;;;;;;;;;;;;4391543;32;20428;-76
2022/03/21 04:53:18;;;;;;;104.72;62.08;;;;;;;;;;4406129;32;20240;-75
2022/03/21 04:55:43;;;;;;;;;;;;;;;;;;4391790;32;20062;-76
2022/03/21 04:58:09;;;;;;;97.47;63.90;;;;;;;;;;4391141;32;19937;-76
2022/03/21 05:00:34;;;;;;;;;;;;;;;;;;4405190;32;20176;-77
2022/03/21 05:03:04;;;;;;;102.32;61.22;;;;;;;;;;4404744;32;19934;-77
2022/03/21 05:05:29;;;;;;;102.35;63.08;;;;;;;;;;4391892;32;20118;-76
2022/03/21 05:07:54;;;;;;;;;;;;;;;;;;4391728;32;20382;-76
2022/03/21 05:10:23;;;;;;;101.18;63.90;;;;;;;;;;4390851;32;20331;-75
2022/03/21 05:12:50;;;;;;;109.15;65.87;;;;;;;;;;4392454;32;20038;-75
2022/03/21 05:15:15;;;;;;;107.25;64.32;;;;;;;;;;4390823;32;20389;-76
2022/03/21 05:17:40;;;;;;;;;;;;;;;;;;4405881;32;20098;-76
2022/03/21 05:20:11;;;;;;;105.22;63.47;;;;;;;;;;4405177;32;19997;-77
2022/03/21 05:22:36;;;;;;;103.75;66.32;;;;;;;;;;4377132;32;20088;-77
2022/03/21 05:35:59;;;;;;;100.35;63.03;;;;;;;;;;4405965;32;20071;-75
2022/03/21 05:38:25;;;;;;;;;;;;;;;;;;4391010;32;20383;-75
2022/03/21 05:40:50;;;;;;;112.53;69.70;;;;;;;;;;4391052;32;19944;-77
2022/03/21 05:43:16;;;;;;;;;;;;;;;;;;4405758;32;20141;-75
2022/03/21 05:45:41;;;;;;;117.65;71.97;;;;;;;;;;4391028;32;19985;-75
2022/03/21 05:50:51;;;;;;;101.10;65.12;;;;;;;;;;4404425;32;20282;-75
2022/03/21 05:53:16;;;;;;;97.62;62.65;;;;;;;;;;4390146;32;20038;-75
2022/03/21 05:55:44;;;;;;;;;;;;;;;;;;4404997;32;20050;-75
2022/03/21 05:58:09;;;;;;;106.07;65.43;;;;;;;;;;4403959;32;19937;-75
2022/03/21 06:00:36;;;;;;;;;;;;;;;;;;4404284;32;20058;-75
2022/03/21 06:03:02;;;;;;;102.82;62.30;;;;;;;;;;4404127;32;19934;-77
2022/03/21 06:05:27;;;;;;;;;;;;;;;;;;4405479;32;20053;-76
2022/03/21 06:07:54;;;;;;;103.52;64.10;;;;;;;;;;4392758;32;20004;-76
2022/03/21 06:10:19;;;;;;;104.28;63.90;;;;;;;;;;4392898;32;20046;-76
2022/03/21 06:12:45;;;;;;;;;;;;;;;;;;4407106;32;20443;-77
2022/03/21 06:15:10;;;;;;;102.97;61.78;;;;;;;;;;4393719;32;19933;-76
2022/03/21 06:17:35;;;;;;;;;;;;;;;;;;4407161;32;20468;-77
2022/03/21 06:20:00;;;;;;;112.88;64.18;;;;;;;;;;4408907;32;19949;-77
2022/03/21 06:22:26;;;;;;;;;;;;;;;;;;4408982;32;20375;-76
2022/03/21 06:24:51;;;;;;;98.25;60.45;;;;;;;;;;4419023;32;19937;-76
2022/03/21 06:27:16;;;;;;;;;;;;;;;;;;4407620;32;20114;-75
2022/03/21 06:29:42;;;;;;;107.87;62.62;;;;;;;;;;4406192;32;19985;-76
2022/03/21 06:32:08;;;;;;;93.25;59.67;;;;;;;;;;4392694;32;20415;-76
2022/03/21 06:34:34;;;;;;;;;;;;;;;;;;4392530;32;20030;-76
2022/03/21 06:36:59;;;;;;;104.93;60.85;;;;;;;;;;4392512;32;20035;-76
2022/03/21 06:39:24;;;;;;;;;;;;;;;;;;4406403;32;20100;-75
2022/03/21 06:41:51;;;;;;;92.85;59.80;;;;;;;;;;4392961;32;20025;-76
2022/03/21 06:44:16;;;;;;;101.22;64.82;;;;;;;;;;4405345;32;20104;-74
2022/03/21 06:46:41;;;;;;;;;;;;;;;;;;4393712;32;20408;-75
2022/03/21 06:49:06;;;;;;;96.80;62.30;;;;;;;;;;4405994;32;19948;-76
2022/03/21 06:51:31;;;;;;;;;;;;;;;;;;4407338;32;20162;-74
2022/03/21 06:53:57;;;;;;;101.47;62.50;;;;;;;;;;4391767;32;19997;-74
2022/03/21 06:56:22;;;;;;;;;;;;;;;;;;4406069;32;20554;-75
2022/03/21 06:58:47;;;;;;;103.65;60.45;;;;;;;;;;4406963;32;19956;-76
2022/03/21 07:01:12;;;;;;;;;;;;;;;;;;4406050;32;20030;-76
2022/03/21 07:03:37;;;;;;;92.78;58.30;;;;;;;;;;4393084;32;20361;-75
2022/03/21 07:06:03;;;;;;;;;;;;;;;;;;4392334;32;20451;-76
2022/03/21 07:08:28;;;;;;;103.72;60.90;;;;;;;;;;4391755;32;19953;-76
2022/03/21 07:10:53;;;;;;;;;;;;;;;;;;4392231;32;20034;-76
2022/03/21 07:13:18;;;;;;;92.97;57.83;;;;;;;;;;4405645;32;20052;-76
2022/03/21 07:15:44;;;;;;;;;;;;;;;;;;4404038;32;20694;-77
2022/03/21 07:18:09;;;;;;;88.60;56.97;;;;;;;;;;4404653;32;19986;-76
2022/03/21 07:20:34;;;;;;;;;;;;;;;;;;4390386;32;20066;-77
2022/03/21 07:23:00;;;;;;;94.35;59.10;;;;;;;;;;4390953;32;19934;-76
2022/03/21 07:25:25;;;;;;;;;;;;;;;;;;4391575;32;20192;-76
2022/03/21 07:27:51;;;;;;;87.65;57.67;;;;;;;;;;4388490;32;19937;-76
2022/03/21 07:30:17;;;;;;;87.80;59.10;;;;;;;;;;4391993;32;20193;-76
2022/03/21 07:32:42;;;;;;;;;;;;;;;;;;4391648;32;20038;-78
2022/03/21 07:35:07;;;;;;;81.70;53.17;;;;;;;;;;4388861;32;19938;-77
2022/03/21 07:37:32;;;;;;;;;;;;;;;;;;4405521;32;20153;-76
2022/03/21 07:39:58;;;;;;;88.57;55.67;;;;;;;;;;4391216;32;19989;-76
2022/03/21 07:42:23;;;;;;;;;;;;;;;;;;4391529;32;20152;-77
2022/03/21 07:47:34;;;;;;;89.05;54.38;;;;;;;;;;4406634;32;20180;-77
2022/03/21 07:49:59;;;;;;;92.40;60.08;;;;;;;;;;4391767;32;20022;-77
2022/03/21 07:52:24;;;;;;;;;;;;;;;;;;4392304;32;20104;-77
2022/03/21 07:54:53;;;;;;;89.30;60.45;;;;;;;;;;4390880;32;19951;-77
2022/03/21 07:57:18;;;;;;;85.30;56.75;;;;;;;;;;4391219;32;20061;-76
2022/03/21 07:59:43;;;;;;;;;;;;;;;;;;4391435;32;20042;-76
2022/03/21 08:02:08;;;;;;;88.28;55.92;;;;;;;;;;4390920;32;20035;-76
2022/03/21 08:04:33;;;;;;;;;;;;;;;;;;4366502;32;20070;-76
2022/03/21 08:06:59;;;;;;;85.03;55.78;;;;;;;;;;4391211;32;20388;-77
2022/03/21 08:09:24;;;;;;;;;;;;;;;;;;4405058;32;20088;-76
2022/03/21 08:11:50;;;;;;;86.15;56.47;;;;;;;;;;4391094;32;20382;-74
2022/03/21 08:14:15;;;;;;;;;;;;;;;;;;4391457;32;20082;-76
2022/03/21 08:16:40;;;;;;;86.35;54.03;;;;;;;;;;4389446;32;19952;-75
2022/03/21 08:19:06;;;;;;;;;;;;;;;;;;4405334;32;20097;-77
2022/03/21 08:21:32;;;;;;;85.22;51.47;;;;;;;;;;4404662;32;19941;-75
2022/03/21 08:23:57;;;;;;;;;;;;;;;;;;4392454;32;20026;-74
2022/03/21 08:26:22;;;;;;;77.60;48.63;;;;;;;;;;4394343;32;19938;-76
2022/03/21 08:28:47;;;;;;;;;;;;;;;;;;4390407;32;20175;-74
2022/03/21 08:31:13;;;;;;;74.30;50.55;;;;;;;;;;4390087;32;20331;-75
2022/03/21 08:33:38;;;;;;;;;;;;;;;;;;4391749;32;20022;-74
2022/03/21 08:36:03;;;;;;;69.85;48.53;;;;;;;;;;4405319;32;19937;-74
2022/03/21 08:38:29;;;;;;;;;;;;;;;;;;4404639;32;20488;-75
2022/03/21 08:40:56;;;;;;;69.62;44.20;;;;;;;;;;4404977;32;19998;-74
2022/03/21 08:43:22;;;;;;;67.65;44.42;;;;;;;;;;4375387;32;20088;-74
2022/03/21 08:45:48;;;;;;;;;;;;;;;;;;4395431;32;20053;-75
2022/03/21 08:48:13;;;;;;;58.83;39.60;;;;;;;;;;4391162;32;19969;-75
2022/03/21 08:50:38;;;;;;;;;;;;;;;;;;4390749;32;20030;-75
2022/03/21 08:53:03;;;;;;;57.95;39.38;;;;;;;;;;4390247;32;19952;-76
2022/03/21 08:55:28;;;;;;;;;;;;;;;;;;4391136;32;20026;-75
2022/03/21 08:57:53;;;;;;;53.28;35.25;;;;;;;;;;4405420;32;20293;-74
2022/03/21 09:00:18;;;;;;;;;;;;;;;;;;4392800;32;20030;-75
2022/03/21 09:02:46;;;;;;;55.03;38.85;;;;;;;;;;4403534;32;19964;-75
2022/03/21 09:05:13;;;;;;;49.90;35.25;;;;;;;;;;4389732;32;20057;-75
2022/03/21 09:07:39;;;;;;;50.85;32.85;;;;;;;;;;4403648;32;20041;-75
2022/03/21 09:10:04;;;;;;;63.78;34.50;;;;;;;;;;4391002;32;20109;-75
2022/03/21 09:12:32;;;;;;;;;;;;;;;;;;4390863;32;20035;-75
2022/03/21 09:14:57;;;;;;;55.05;35.25;;;;;;;;;;4388780;32;19930;-75
2022/03/21 09:17:22;;;;;;;;;;;;;;;;;;4404601;32;20046;-75
2022/03/21 09:19:47;;;;;;;53.20;33.20;;;;;;;;;;4404008;32;19990;-75
2022/03/21 09:22:12;;;;;;;;;;;;;;;;;;4405917;32;20102;-76
2022/03/21 09:24:37;;;;;;;47.58;33.35;;;;;;;;;;4404225;32;19977;-77
2022/03/21 09:27:02;;;;;;;;;;;;;;;;;;4406601;32;20049;-76
2022/03/21 09:29:28;;;;;;;46.05;28.45;;;;;;;;;;4404420;32;19987;-76
2022/03/21 09:31:53;;;;;;;;;;;;;;;;;;4405264;32;20122;-75
2022/03/21 09:34:18;;;;;;;40.12;27.35;;;;;;;;;;4404111;32;19938;-75
2022/03/21 09:36:43;;;;;;;;;;;;;;;;;;4404293;32;20421;-75
2022/03/21 09:39:09;;;;;;;43.00;27.13;;;;;;;;;;4389142;32;19945;-75
2022/03/21 09:41:34;;;;;;;;;;;;;;;;;;4393768;32;20161;-75
2022/03/21 09:44:03;;;;;;;37.70;26.30;;;;;;;;;;4407144;32;19960;-75
2022/03/21 09:46:29;;;;;;;54.70;29.15;;;;;;;;;;4392736;32;20022;-77
2022/03/21 09:48:54;;;;;;;;;;;;;;;;;;4408004;32;20081;-76
2022/03/21 09:51:39;;;;;;;41.13;26.85;;;;;;;;;;4414504;32;20274;-76
2022/03/21 09:54:04;;;;;;;45.75;27.30;;;;;;;;;;4407858;32;20057;-77
2022/03/21 09:56:29;;;;;;;;;;;;;;;;;;4393549;32;20033;-76
2022/03/21 09:59:01;;;;;;;38.50;26.48;;;;;;;;;;4407010;32;20244;-76
2022/03/21 10:01:29;;;;;;;49.35;27.42;;;;;;;;;;4407265;32;20084;-75
2022/03/21 10:03:55;;;;;;;43.47;25.77;;;;;;;;;;4393294;32;20126;-75
2022/03/21 10:06:20;;;;;;;;;;;;;;;;;;4394042;32;20026;-76
2022/03/21 10:08:46;;;;;;;42.45;24.40;;;;;;;;;;4393541;32;20046;-76
2022/03/21 10:11:11;;;;;;;;;;;;;;;;;;4408342;32;20097;-76
2022/03/21 10:13:36;;;;;;;;;;;;;;;;;;4407246;32;19946;-76
2022/03/21 10:16:01;;;;;;;;;;;;;;;;;;4406968;32;19933;-75
2022/03/21 10:18:26;;;;;;;;;;;;;;;;;;4408207;32;19934;-75
2022/03/21 10:20:51;;;;;;;;;;;;;;;;;;4407013;32;20060;-75
2022/03/21 10:23:16;;;;;;;;;;;;;;;;;;4408370;32;19950;-75
2022/03/21 10:25:41;;;;;;;;;;;;;;;;;;4392769;32;19942;-76
2022/03/21 10:28:06;;;;;;;;;;;;;;;;;;4406315;32;19938;-75
2022/03/21 10:30:32;;;;;;;;;;;;;;;;;;4406683;32;20386;-75
2022/03/21 10:32:57;;;;;;;;;;;;;;;;;;4408379;32;19941;-74
2022/03/21 10:35:22;;;;;;;;;;;;;;;;;;4406591;32;19967;-75
2022/03/21 10:37:47;;;;;;;;;;;;;;;;;;4407484;32;20341;-75
2022/03/21 10:40:12;;;;;;;;;;;;;;;;;;4406305;32;20342;-75
2022/03/21 10:42:37;;;;;;;;;;;;;;;;;;4406178;32;19952;-74
2022/03/21 10:45:03;;;;;;;;;;;;;;;;;;4406850;32;19933;-75
2022/03/21 10:47:28;;;;;;;;;;;;;;;;;;4392383;32;19940;-75
2022/03/21 10:49:53;;;;;;;;;;;;;;;;;;4405317;32;20236;-75
2022/03/21 10:52:18;;;;;;;;;;;;;;;;;;4405290;32;19989;-76
2022/03/21 10:54:45;;;;;;;;;;;;;;;;;;4405317;32;20009;-76
2022/03/21 10:57:10;;;;;;;;;;;;;;;;;;4407707;32;20031;-75
2022/03/21 10:59:35;;;;;;;;;;;;;;;;;;4406191;32;19961;-74
2022/03/21 11:02:01;;;;;;;;;;;;;;;;;;4403327;32;19942;-74
2022/03/21 11:04:26;;;;;;;;;;;;;;;;;;4386801;32;20388;-76
2022/03/21 11:06:51;;;;;;;;;;;;;;;;;;4406835;32;19944;-75
2022/03/21 11:09:16;;;;;;;;;;;;;;;;;;4406057;32;19942;-75
2022/03/21 11:11:41;;;;;;;;;;;;;;;;;;4405941;32;20026;-74
2022/03/21 11:14:06;;;;;;;;;;;;;;;;;;4390460;32;20347;-77
2022/03/21 11:16:31;;;;;;;;;;;;;;;;;;4409501;32;19933;-74
2022/03/21 11:18:59;;;;;;;;;;;;;;;;;;4405793;32;19943;-75
2022/03/21 11:21:24;;;;;;;;;;;;;;;;;;4390569;32;19934;-75
2022/03/21 11:23:50;;;;;;;;;;;;;;;;;;4396736;32;19956;-76
2022/03/21 11:26:16;;;;;;;;;;;;;;;;;;4407675;32;19949;-75
2022/03/21 11:28:41;;;;;;;;;;;;;;;;;;4407145;32;19961;-75
2022/03/21 11:31:06;;;;;;;;;;;;;;;;;;4406718;32;19948;-77
2022/03/21 11:33:31;;;;;;;;;;;;;;;;;;4400034;32;19948;-75
2022/03/21 11:35:56;;;;;;;;;;;;;;;;;;4413303;32;19948;-75
2022/03/21 11:38:21;;;;;;;;;;;;;;;;;;4392389;32;20002;-76
2022/03/21 11:40:46;;;;;;;;;;;;;;;;;;4403461;32;19945;-75
2022/03/21 11:43:11;;;;;;;;;;;;;;;;;;4401375;32;19938;-75
2022/03/21 11:45:36;;;;;;;;;;;;;;;;;;4402089;32;19933;-76
2022/03/21 11:48:02;;;;;;;;;;;;;;;;;;4403593;32;20255;-76
2022/03/21 11:50:27;;;;;;;;;;;;;;;;;;4406035;32;19945;-76
2022/03/21 11:52:52;;;;;;;;;;;;;;;;;;4405335;32;19989;-75
2022/03/21 11:55:17;;;;;;;;;;;;;;;;;;4405670;32;19938;-76
2022/03/21 11:57:42;;;;;;;;;;;;;;;;;;4405225;32;19945;-76
2022/03/21 12:00:07;;;;;;;;;;;;;;;;;;4396459;32;19968;-76
2022/03/21 12:02:32;;;;;;;;;;;;;;;;;;4404438;32;20307;-76
2022/03/21 12:04:57;;;;;;;;;;;;;;;;;;4406317;32;19949;-76
2022/03/21 12:07:22;;;;;;;;;;;;;;;;;;4396869;32;20261;-76
2022/03/21 12:09:47;;;;;;;;;;;;;;;;;;4391868;32;19949;-76
2022/03/21 12:12:13;;;;;;;;;;;;;;;;;;4391137;32;19960;-76
2022/03/21 12:14:41;;;;;;;;;;;;;;;;;;4389511;32;19972;-76
2022/03/21 12:17:06;;;;;;;;;;;;;;;;;;4391878;32;20297;-76
2022/03/21 12:19:32;;;;;;;;;;;;;;;;;;4390034;32;19949;-74
2022/03/21 12:21:57;;;;;;;;;;;;;;;;;;4389417;32;19972;-75
2022/03/21 12:24:22;;;;;;;;;;;;;;;;;;4390225;32;19948;-75
2022/03/21 12:26:48;;;;;;;;;;;;;;;;;;4390490;32;19942;-75
2022/03/21 12:29:32;;;;;;;;;;;;;;;;;;4389993;32;20255;-76
2022/03/21 12:31:57;;;;;;;;;;;;;;;;;;4390676;32;20069;-75
2022/03/21 12:34:22;;;;;;;;;;;;;;;;;;4406566;32;19975;-75
2022/03/21 12:36:51;;;;;;;;;;;;;;;;;;4420062;32;19941;-76
2022/03/21 12:39:16;;;;;;;;;;;;;;;;;;4420104;32;19948;-76
2022/03/21 12:41:41;;;;;;;;;;;;;;;;;;4422389;32;19936;-76
2022/03/21 12:44:08;;;;;;;;;;;;;;;;;;4420548;32;19933;-76
2022/03/21 12:46:33;;;;;;;;;;;;;;;;;;4418651;32;19936;-76
2022/03/21 12:48:59;;;;;;;;;;;;;;;;;;4403762;32;20326;-75
2022/03/21 12:51:24;;;;;;;;;;;;;;;;;;4405589;32;20028;-76
2022/03/21 12:53:49;;;;;;;;;;;;;;;;;;4391688;32;20364;-76
2022/03/21 12:56:14;;;;;;;;;;;;;;;;;;4404765;32;20263;-75
2022/03/21 12:58:42;;;;;;;;;;;;;;;;;;4390734;32;19948;-76
2022/03/21 13:01:07;;;;;;;;;;;;;;;;;;4391146;32;19933;-76
2022/03/21 13:03:32;;;;;;;;;;;;;;;;;;4404825;32;20352;-75
2022/03/21 13:11:25;;;;;;;;;;;;;;;;;;4405909;32;21043;-76
2022/03/21 13:13:53;;;;;;;;;;;;;;;;;;4406397;32;19941;-76
2022/03/21 13:16:18;;;;;;;;;;;;;;;;;;4407921;32;19937;-76
2022/03/21 13:18:43;;;;;;;;;;;;;;;;;;4407946;32;19949;-75
2022/03/21 13:21:09;;;;;;;;;;;;;;;;;;4407268;32;19941;-75
2022/03/21 13:23:34;;;;;;;;;;;;;;;;;;4420281;32;19933;-75
2022/03/21 13:25:59;;;;;;;;;;;;;;;;;;4407885;32;20287;-76
2022/03/21 13:28:31;;;;;;;;;;;;;;;;;;4393801;32;19950;-76
2022/03/21 13:30:56;;;;;;;;;;;;;;;;;;4405833;32;19945;-75
2022/03/21 13:33:21;;;;;;;;;;;;;;;;;;4408126;32;19937;-76
2022/03/21 13:35:46;;;;;;;;;;;;;;;;;;4394133;32;19946;-76
2022/03/21 13:38:13;;;;;;;;;;;;;;;;;;4406415;32;20001;-76
2022/03/21 13:40:38;;;;;;;;;;;;;;;;;;4393945;32;19933;-76
2022/03/21 13:43:04;;;;;;;;;;;;;;;;;;4411300;32;19937;-76
2022/03/21 13:45:29;;;;;;;;;;;;;;;;;;4404740;32;20342;-76
2022/03/21 13:47:55;;;;;;;;;;;;;;;;;;4398052;32;20374;-75
2022/03/21 13:50:20;;;;;;;;;;;;;;;;;;4406258;32;19999;-74
2022/03/21 13:52:45;;;;;;;;;;;;;;;;;;4392082;32;19981;-74
2022/03/21 13:55:10;;;;;;;;;;;;;;;;;;4392920;32;19971;-75
2022/03/21 13:57:36;;;;;;;;;;;;;;;;;;4392773;32;20350;-76
2022/03/21 14:00:01;;;;;;;;;;;;;;;;;;4402088;32;19945;-75
2022/03/21 14:02:27;;;;;;;;;;;;;;;;;;4407173;32;19937;-76
2022/03/21 14:04:55;;;;;;;;;;;;;;;;;;4379244;32;19944;-75
2022/03/21 14:07:20;;;;;;;;;;;;;;;;;;4421951;32;19977;-74
2022/03/21 14:09:45;;;;;;;;;;;;;;;;;;4405078;32;20068;-74
2022/03/21 14:12:10;;;;;;;;;;;;;;;;;;4411551;32;19953;-75
2022/03/21 14:14:35;;;;;;;;;;;;;;;;;;4391693;32;20315;-75
2022/03/21 14:17:00;;;;;;;;;;;;;;;;;;4393625;32;20331;-75
2022/03/21 14:19:26;;;;;;;;;;;;;;;;;;4408173;32;19937;-74
2022/03/21 14:21:51;;;;;;;;;;;;;;;;;;4403471;32;19952;-74
2022/03/21 14:24:16;;;;;;;;;;;;;;;;;;4408188;32;19941;-74
2022/03/21 14:26:41;;;;;;;;;;;;;;;;;;4405680;32;19929;-75
2022/03/21 14:29:06;;;;;;;;;;;;;;;;;;4405707;32;19946;-74
2022/03/21 14:31:32;;;;;;;;;;;;;;;;;;4405614;32;19933;-75
2022/03/21 14:33:57;;;;;;;;;;;;;;;;;;4406270;32;19934;-75
2022/03/21 14:36:22;;;;;;;;;;;;;;;;;;4404141;32;19937;-75
2022/03/21 14:38:47;;;;;;;;;;;;;;;;;;4405756;32;20325;-74
2022/03/21 14:41:16;;;;;;;;;;;;;;;;;;4392513;32;19961;-74
2022/03/21 14:43:42;;;;;;;;;;;;;;;;;;4392970;32;19977;-74
2022/03/21 14:46:07;;;;;;;;;;;;;;;;;;4400104;32;19988;-75
2022/03/21 14:48:32;;;;;;;;;;;;;;;;;;4383224;32;19945;-75
2022/03/21 14:51:00;;;;;;;;;;;;;;;;;;4407454;32;19946;-75
2022/03/21 14:53:25;;;;;;;;;;;;;;;;;;4405978;32;20358;-74
2022/03/21 14:55:50;;;;;;;;;;;;;;;;;;4407066;32;20341;-74
2022/03/21 14:58:16;;;;;;;;;;;;;;;;;;4407674;32;19968;-75
2022/03/21 15:00:41;;;;;;;;;;;;;;;;;;4412025;32;20028;-76
2022/03/21 15:03:08;;;;;;;;;;;;;;;;;;4406238;32;19984;-74
2022/03/21 15:05:33;;;;;;;;;;;;;;;;;;4406264;32;19949;-75
2022/03/21 15:07:58;;;;;;;;;;;;;;;;;;4393692;32;19937;-75
2022/03/21 15:10:24;;;;;;;;;;;;;;;;;;4407486;32;19948;-76
2022/03/21 15:12:49;;;;;;;;;;;;;;;;;;4392737;32;19957;-75
2022/03/21 15:15:14;;;;;;;;;;;;;;;;;;4405760;32;20518;-75
2022/03/21 15:17:39;;;;;;;;;;;;;;;;;;4392288;32;19937;-75
2022/03/21 15:20:05;;;;;;;;;;;;;;;;;;4406576;32;19934;-75
2022/03/21 15:22:31;;;;;;;;;;;;;;;;;;4389395;32;19934;-75
2022/03/21 15:24:56;;;;;;;;;;;;;;;;;;4390561;32;19949;-75
2022/03/21 15:27:21;;;;;;;;;;;;;;;;;;4397584;32;19982;-75
2022/03/21 15:29:47;;;;;;;;;;;;;;;;;;4397048;32;20286;-75
2022/03/21 15:32:12;;;;;;;;;;;;;;;;;;4403985;32;19949;-75
2022/03/21 15:34:37;;;;;;;;;;;;;;;;;;4414135;32;20282;-75
2022/03/21 15:42:30;;;;;;;;;;;;;;;;;;4405619;32;20106;-75
2022/03/21 15:44:57;;;;;;;;;;;;;;;;;;4391907;32;19942;-76
2022/03/21 15:47:22;;;;;;;;;;;;;;;;;;4391339;32;19938;-76
2022/03/21 15:49:48;;;;;;;;;;;;;;;;;;4405715;32;19948;-75
2022/03/21 15:52:13;;;;;;;;;;;;;;;;;;4383640;32;20277;-77
2022/03/21 15:54:39;;;;;;;;;;;;;;;;;;4405425;32;19946;-76
2022/03/21 15:57:04;;;;;;;;;;;;;;;;;;4405455;32;19981;-75
2022/03/21 15:59:29;;;;;;;;;;;;;;;;;;4391895;32;19993;-76
2022/03/21 16:01:54;;;;;;;;;;;;;;;;;;4405546;32;19941;-75
2022/03/21 16:04:19;;;;;;;;;;;;;;;;;;4405566;32;20367;-76